sensor_id;sensor_type;location;lat;lon;timestamp;P1;durP1;ratioP1;P2;durP2;ratioP2
8532;SDS011;4304;53.876;10.662;2022-11-20T00:00:25;3.17;;;2.60;;
8532;SDS011;4304;53.876;10.662;2022-11-20T00:02:51;4.60;;;2.77;;
8532;SDS011;4304;53.876;10.662;2022-11-20T00:05:16;4.00;;;2.73;;
8532;SDS011;4304;53.876;10.662;2022-11-20T00:07:41;4.47;;;2.97;;
8532;SDS011;4304;53.876;10.662;2022-11-20T00:10:06;5.13;;;3.03;;
8532;SDS011;4304;53.876;10.662;2022-11-20T00:12:32;5.10;;;3.10;;
8532;SDS011;4304;53.876;10.662;2022-11-20T00:14:58;5.07;;;2.50;;
8532;SDS011;4304;53.876;10.662;2022-11-20T00:17:23;3.87;;;2.50;;
8532;SDS011;4304;53.876;10.662;2022-11-20T00:19:48;6.00;;;2.83;;
8532;SDS011;4304;53.876;10.662;2022-11-20T00:22:13;5.43;;;3.30;;
8532;SDS011;4304;53.876;10.662;2022-11-20T00:24:39;5.33;;;3.30;;
8532;SDS011;4304;53.876;10.662;2022-11-20T00:27:04;4.07;;;2.93;;
8532;SDS011;4304;53.876;10.662;2022-11-20T00:29:29;4.43;;;2.97;;
8532;SDS011;4304;53.876;10.662;2022-11-20T00:31:54;4.27;;;3.17;;
8532;SDS011;4304;53.876;10.662;2022-11-20T00:34:19;4.87;;;3.00;;
8532;SDS011;4304;53.876;10.662;2022-11-20T00:36:45;4.30;;;3.10;;
8532;SDS011;4304;53.876;10.662;2022-11-20T00:39:10;4.13;;;2.97;;
8532;SDS011;4304;53.876;10.662;2022-11-20T00:41:35;3.73;;;2.80;;
8532;SDS011;4304;53.876;10.662;2022-11-20T00:44:01;3.77;;;2.80;;
8532;SDS011;4304;53.876;10.662;2022-11-20T00:46:26;4.17;;;3.00;;
8532;SDS011;4304;53.876;10.662;2022-11-20T00:48:52;2.87;;;2.37;;
8532;SDS011;4304;53.876;10.662;2022-11-20T00:51:19;6.37;;;2.67;;
8532;SDS011;4304;53.876;10.662;2022-11-20T00:53:47;4.17;;;2.73;;
8532;SDS011;4304;53.876;10.662;2022-11-20T00:56:13;6.70;;;3.17;;
8532;SDS011;4304;53.876;10.662;2022-11-20T00:58:41;4.23;;;3.27;;
8532;SDS011;4304;53.876;10.662;2022-11-20T01:03:37;4.73;;;3.10;;
8532;SDS011;4304;53.876;10.662;2022-11-20T01:06:05;4.83;;;3.13;;
8532;SDS011;4304;53.876;10.662;2022-11-20T01:08:34;5.03;;;3.37;;
8532;SDS011;4304;53.876;10.662;2022-11-20T01:11:00;5.60;;;3.67;;
8532;SDS011;4304;53.876;10.662;2022-11-20T01:13:26;4.73;;;2.97;;
8532;SDS011;4304;53.876;10.662;2022-11-20T01:15:52;6.80;;;3.70;;
8532;SDS011;4304;53.876;10.662;2022-11-20T01:18:17;5.47;;;3.30;;
8532;SDS011;4304;53.876;10.662;2022-11-20T01:20:42;5.70;;;3.57;;
8532;SDS011;4304;53.876;10.662;2022-11-20T01:23:08;6.00;;;3.50;;
8532;SDS011;4304;53.876;10.662;2022-11-20T01:25:34;4.23;;;2.73;;
8532;SDS011;4304;53.876;10.662;2022-11-20T01:28:01;5.77;;;3.40;;
8532;SDS011;4304;53.876;10.662;2022-11-20T01:30:27;4.23;;;3.13;;
8532;SDS011;4304;53.876;10.662;2022-11-20T01:32:54;5.13;;;3.30;;
8532;SDS011;4304;53.876;10.662;2022-11-20T01:35:20;4.03;;;3.37;;
8532;SDS011;4304;53.876;10.662;2022-11-20T01:37:45;9.37;;;3.60;;
8532;SDS011;4304;53.876;10.662;2022-11-20T01:40:10;6.70;;;3.67;;
8532;SDS011;4304;53.876;10.662;2022-11-20T01:42:36;6.63;;;3.60;;
8532;SDS011;4304;53.876;10.662;2022-11-20T01:45:01;5.60;;;3.50;;
8532;SDS011;4304;53.876;10.662;2022-11-20T01:47:47;5.10;;;3.93;;
8532;SDS011;4304;53.876;10.662;2022-11-20T01:50:23;10.33;;;4.57;;
8532;SDS011;4304;53.876;10.662;2022-11-20T01:52:53;5.40;;;3.60;;
8532;SDS011;4304;53.876;10.662;2022-11-20T01:55:23;6.27;;;4.30;;
8532;SDS011;4304;53.876;10.662;2022-11-20T01:57:53;6.23;;;3.90;;
8532;SDS011;4304;53.876;10.662;2022-11-20T02:00:19;6.03;;;3.80;;
8532;SDS011;4304;53.876;10.662;2022-11-20T02:02:47;5.20;;;3.67;;
8532;SDS011;4304;53.876;10.662;2022-11-20T02:05:32;5.63;;;3.50;;
8532;SDS011;4304;53.876;10.662;2022-11-20T02:08:09;6.07;;;3.87;;
8532;SDS011;4304;53.876;10.662;2022-11-20T02:10:53;7.87;;;4.87;;
8532;SDS011;4304;53.876;10.662;2022-11-20T02:13:18;9.67;;;3.70;;
8532;SDS011;4304;53.876;10.662;2022-11-20T02:15:44;7.03;;;3.77;;
8532;SDS011;4304;53.876;10.662;2022-11-20T02:18:11;4.97;;;3.53;;
8532;SDS011;4304;53.876;10.662;2022-11-20T02:20:39;6.60;;;4.27;;
8532;SDS011;4304;53.876;10.662;2022-11-20T02:23:16;5.77;;;3.70;;
8532;SDS011;4304;53.876;10.662;2022-11-20T02:25:46;4.83;;;3.20;;
8532;SDS011;4304;53.876;10.662;2022-11-20T02:28:12;5.43;;;3.43;;
8532;SDS011;4304;53.876;10.662;2022-11-20T02:30:37;6.13;;;3.43;;
8532;SDS011;4304;53.876;10.662;2022-11-20T02:33:02;5.10;;;2.97;;
8532;SDS011;4304;53.876;10.662;2022-11-20T02:38:16;5.13;;;3.23;;
8532;SDS011;4304;53.876;10.662;2022-11-20T02:40:41;6.53;;;4.07;;
8532;SDS011;4304;53.876;10.662;2022-11-20T02:43:07;6.10;;;3.43;;
8532;SDS011;4304;53.876;10.662;2022-11-20T02:45:32;5.87;;;2.97;;
8532;SDS011;4304;53.876;10.662;2022-11-20T02:47:58;5.03;;;3.57;;
8532;SDS011;4304;53.876;10.662;2022-11-20T02:50:23;5.27;;;3.37;;
8532;SDS011;4304;53.876;10.662;2022-11-20T02:52:57;6.83;;;3.60;;
8532;SDS011;4304;53.876;10.662;2022-11-20T02:55:22;6.83;;;3.63;;
8532;SDS011;4304;53.876;10.662;2022-11-20T02:57:48;6.00;;;3.40;;
8532;SDS011;4304;53.876;10.662;2022-11-20T03:00:13;6.53;;;3.83;;
8532;SDS011;4304;53.876;10.662;2022-11-20T03:02:39;5.63;;;3.20;;
8532;SDS011;4304;53.876;10.662;2022-11-20T03:05:04;6.00;;;3.17;;
8532;SDS011;4304;53.876;10.662;2022-11-20T03:07:29;6.27;;;3.90;;
8532;SDS011;4304;53.876;10.662;2022-11-20T03:09:55;6.93;;;3.50;;
8532;SDS011;4304;53.876;10.662;2022-11-20T03:12:22;7.60;;;3.70;;
8532;SDS011;4304;53.876;10.662;2022-11-20T03:14:47;6.60;;;3.87;;
8532;SDS011;4304;53.876;10.662;2022-11-20T03:17:12;4.70;;;3.27;;
8532;SDS011;4304;53.876;10.662;2022-11-20T03:19:38;5.10;;;3.77;;
8532;SDS011;4304;53.876;10.662;2022-11-20T03:22:03;5.87;;;3.63;;
8532;SDS011;4304;53.876;10.662;2022-11-20T03:24:47;11.03;;;3.80;;
8532;SDS011;4304;53.876;10.662;2022-11-20T03:27:12;7.17;;;3.63;;
8532;SDS011;4304;53.876;10.662;2022-11-20T03:29:37;7.77;;;4.47;;
8532;SDS011;4304;53.876;10.662;2022-11-20T03:32:02;9.07;;;5.17;;
8532;SDS011;4304;53.876;10.662;2022-11-20T03:34:28;5.30;;;3.73;;
8532;SDS011;4304;53.876;10.662;2022-11-20T03:36:53;9.90;;;3.93;;
8532;SDS011;4304;53.876;10.662;2022-11-20T03:39:19;6.53;;;3.83;;
8532;SDS011;4304;53.876;10.662;2022-11-20T03:41:44;6.07;;;3.90;;
8532;SDS011;4304;53.876;10.662;2022-11-20T03:44:10;5.77;;;3.97;;
8532;SDS011;4304;53.876;10.662;2022-11-20T03:46:38;6.63;;;4.00;;
8532;SDS011;4304;53.876;10.662;2022-11-20T03:49:03;8.40;;;3.83;;
8532;SDS011;4304;53.876;10.662;2022-11-20T03:51:30;5.47;;;3.97;;
8532;SDS011;4304;53.876;10.662;2022-11-20T03:53:58;6.27;;;3.70;;
8532;SDS011;4304;53.876;10.662;2022-11-20T03:56:25;6.47;;;4.03;;
8532;SDS011;4304;53.876;10.662;2022-11-20T03:58:53;5.53;;;3.73;;
8532;SDS011;4304;53.876;10.662;2022-11-20T04:01:19;8.10;;;4.30;;
8532;SDS011;4304;53.876;10.662;2022-11-20T04:03:47;5.63;;;4.03;;
8532;SDS011;4304;53.876;10.662;2022-11-20T04:06:18;5.53;;;3.93;;
8532;SDS011;4304;53.876;10.662;2022-11-20T04:08:44;8.80;;;3.90;;
8532;SDS011;4304;53.876;10.662;2022-11-20T04:13:45;8.30;;;4.00;;
8532;SDS011;4304;53.876;10.662;2022-11-20T04:16:11;5.33;;;3.63;;
8532;SDS011;4304;53.876;10.662;2022-11-20T04:18:36;6.97;;;4.53;;
8532;SDS011;4304;53.876;10.662;2022-11-20T04:21:02;5.50;;;3.60;;
8532;SDS011;4304;53.876;10.662;2022-11-20T04:23:28;6.33;;;3.30;;
8532;SDS011;4304;53.876;10.662;2022-11-20T04:25:54;7.77;;;3.67;;
8532;SDS011;4304;53.876;10.662;2022-11-20T04:28:19;5.17;;;3.03;;
8532;SDS011;4304;53.876;10.662;2022-11-20T04:30:45;8.00;;;3.70;;
8532;SDS011;4304;53.876;10.662;2022-11-20T04:33:10;5.63;;;3.47;;
8532;SDS011;4304;53.876;10.662;2022-11-20T04:35:35;6.70;;;3.60;;
8532;SDS011;4304;53.876;10.662;2022-11-20T04:38:02;7.57;;;3.57;;
8532;SDS011;4304;53.876;10.662;2022-11-20T04:40:28;5.70;;;3.80;;
8532;SDS011;4304;53.876;10.662;2022-11-20T04:42:54;5.60;;;3.37;;
8532;SDS011;4304;53.876;10.662;2022-11-20T04:45:20;9.03;;;3.77;;
8532;SDS011;4304;53.876;10.662;2022-11-20T04:47:46;9.53;;;3.90;;
8532;SDS011;4304;53.876;10.662;2022-11-20T04:50:24;10.30;;;3.70;;
8532;SDS011;4304;53.876;10.662;2022-11-20T04:52:49;3.63;;;2.90;;
8532;SDS011;4304;53.876;10.662;2022-11-20T04:55:14;4.33;;;3.30;;
8532;SDS011;4304;53.876;10.662;2022-11-20T04:57:39;5.77;;;3.80;;
8532;SDS011;4304;53.876;10.662;2022-11-20T05:00:05;7.27;;;3.67;;
8532;SDS011;4304;53.876;10.662;2022-11-20T05:02:31;5.30;;;3.40;;
8532;SDS011;4304;53.876;10.662;2022-11-20T05:04:56;6.87;;;3.57;;
8532;SDS011;4304;53.876;10.662;2022-11-20T05:07:21;6.03;;;3.50;;
8532;SDS011;4304;53.876;10.662;2022-11-20T05:09:46;4.23;;;3.27;;
8532;SDS011;4304;53.876;10.662;2022-11-20T05:12:12;8.27;;;3.60;;
8532;SDS011;4304;53.876;10.662;2022-11-20T05:14:37;5.50;;;3.17;;
8532;SDS011;4304;53.876;10.662;2022-11-20T05:17:02;8.60;;;3.30;;
8532;SDS011;4304;53.876;10.662;2022-11-20T05:19:27;6.43;;;2.90;;
8532;SDS011;4304;53.876;10.662;2022-11-20T05:21:54;4.23;;;2.70;;
8532;SDS011;4304;53.876;10.662;2022-11-20T05:24:19;5.00;;;3.00;;
8532;SDS011;4304;53.876;10.662;2022-11-20T05:26:45;5.83;;;3.17;;
8532;SDS011;4304;53.876;10.662;2022-11-20T05:29:11;6.47;;;3.23;;
8532;SDS011;4304;53.876;10.662;2022-11-20T05:31:38;4.63;;;3.07;;
8532;SDS011;4304;53.876;10.662;2022-11-20T05:34:07;5.00;;;3.20;;
8532;SDS011;4304;53.876;10.662;2022-11-20T05:36:35;5.53;;;2.60;;
8532;SDS011;4304;53.876;10.662;2022-11-20T05:39:17;4.73;;;3.63;;
8532;SDS011;4304;53.876;10.662;2022-11-20T05:41:42;5.67;;;3.00;;
8532;SDS011;4304;53.876;10.662;2022-11-20T05:44:10;5.70;;;3.23;;
8532;SDS011;4304;53.876;10.662;2022-11-20T05:46:35;5.37;;;2.83;;
8532;SDS011;4304;53.876;10.662;2022-11-20T05:49:16;4.53;;;3.03;;
8532;SDS011;4304;53.876;10.662;2022-11-20T05:51:41;5.13;;;2.97;;
8532;SDS011;4304;53.876;10.662;2022-11-20T05:54:06;6.07;;;3.10;;
8532;SDS011;4304;53.876;10.662;2022-11-20T05:56:32;5.23;;;2.70;;
8532;SDS011;4304;53.876;10.662;2022-11-20T05:58:57;3.90;;;2.80;;
8532;SDS011;4304;53.876;10.662;2022-11-20T06:01:24;3.60;;;2.70;;
8532;SDS011;4304;53.876;10.662;2022-11-20T06:03:50;3.30;;;2.40;;
8532;SDS011;4304;53.876;10.662;2022-11-20T06:06:16;4.57;;;3.13;;
8532;SDS011;4304;53.876;10.662;2022-11-20T06:08:43;4.20;;;2.67;;
8532;SDS011;4304;53.876;10.662;2022-11-20T06:11:09;4.63;;;2.80;;
8532;SDS011;4304;53.876;10.662;2022-11-20T06:13:36;3.97;;;2.70;;
8532;SDS011;4304;53.876;10.662;2022-11-20T06:16:02;2.57;;;2.27;;
8532;SDS011;4304;53.876;10.662;2022-11-20T06:18:28;3.43;;;2.40;;
8532;SDS011;4304;53.876;10.662;2022-11-20T06:21:01;3.00;;;2.30;;
8532;SDS011;4304;53.876;10.662;2022-11-20T06:23:38;5.63;;;2.77;;
8532;SDS011;4304;53.876;10.662;2022-11-20T06:26:05;3.93;;;2.90;;
8532;SDS011;4304;53.876;10.662;2022-11-20T06:28:32;5.17;;;2.97;;
8532;SDS011;4304;53.876;10.662;2022-11-20T06:30:58;3.37;;;2.20;;
8532;SDS011;4304;53.876;10.662;2022-11-20T06:33:41;3.90;;;2.83;;
8532;SDS011;4304;53.876;10.662;2022-11-20T06:36:07;3.70;;;2.70;;
8532;SDS011;4304;53.876;10.662;2022-11-20T06:38:33;3.17;;;2.57;;
8532;SDS011;4304;53.876;10.662;2022-11-20T06:40:59;3.30;;;2.57;;
8532;SDS011;4304;53.876;10.662;2022-11-20T06:43:31;4.33;;;2.40;;
8532;SDS011;4304;53.876;10.662;2022-11-20T06:45:57;5.50;;;2.67;;
8532;SDS011;4304;53.876;10.662;2022-11-20T06:48:23;4.43;;;2.60;;
8532;SDS011;4304;53.876;10.662;2022-11-20T06:51:02;3.97;;;2.70;;
8532;SDS011;4304;53.876;10.662;2022-11-20T06:53:29;3.60;;;2.50;;
8532;SDS011;4304;53.876;10.662;2022-11-20T06:55:55;3.90;;;2.67;;
8532;SDS011;4304;53.876;10.662;2022-11-20T06:58:26;3.63;;;2.60;;
8532;SDS011;4304;53.876;10.662;2022-11-20T07:00:53;2.70;;;2.03;;
8532;SDS011;4304;53.876;10.662;2022-11-20T07:03:18;4.57;;;2.67;;
8532;SDS011;4304;53.876;10.662;2022-11-20T07:05:43;3.43;;;2.23;;
8532;SDS011;4304;53.876;10.662;2022-11-20T07:08:11;3.60;;;2.27;;
8532;SDS011;4304;53.876;10.662;2022-11-20T07:10:40;2.73;;;2.23;;
8532;SDS011;4304;53.876;10.662;2022-11-20T07:13:06;3.40;;;2.30;;
8532;SDS011;4304;53.876;10.662;2022-11-20T07:15:39;3.80;;;2.53;;
8532;SDS011;4304;53.876;10.662;2022-11-20T07:18:19;2.97;;;2.40;;
8532;SDS011;4304;53.876;10.662;2022-11-20T07:20:46;3.73;;;2.60;;
8532;SDS011;4304;53.876;10.662;2022-11-20T07:23:11;7.27;;;2.97;;
8532;SDS011;4304;53.876;10.662;2022-11-20T07:25:36;3.70;;;2.40;;
8532;SDS011;4304;53.876;10.662;2022-11-20T07:28:02;2.93;;;2.20;;
8532;SDS011;4304;53.876;10.662;2022-11-20T07:30:28;3.87;;;2.57;;
8532;SDS011;4304;53.876;10.662;2022-11-20T07:32:54;4.33;;;2.87;;
8532;SDS011;4304;53.876;10.662;2022-11-20T07:35:22;4.37;;;2.90;;
8532;SDS011;4304;53.876;10.662;2022-11-20T07:37:48;4.30;;;2.67;;
8532;SDS011;4304;53.876;10.662;2022-11-20T07:40:14;4.70;;;2.83;;
8532;SDS011;4304;53.876;10.662;2022-11-20T07:42:53;5.03;;;2.83;;
8532;SDS011;4304;53.876;10.662;2022-11-20T07:45:20;4.67;;;3.27;;
8532;SDS011;4304;53.876;10.662;2022-11-20T07:47:47;5.53;;;3.23;;
8532;SDS011;4304;53.876;10.662;2022-11-20T07:50:13;4.23;;;2.97;;
8532;SDS011;4304;53.876;10.662;2022-11-20T07:52:38;4.00;;;3.07;;
8532;SDS011;4304;53.876;10.662;2022-11-20T07:55:04;8.10;;;4.00;;
8532;SDS011;4304;53.876;10.662;2022-11-20T07:57:30;7.13;;;4.20;;
8532;SDS011;4304;53.876;10.662;2022-11-20T08:00:03;8.53;;;4.93;;
8532;SDS011;4304;53.876;10.662;2022-11-20T08:02:30;10.50;;;5.77;;
8532;SDS011;4304;53.876;10.662;2022-11-20T08:05:06;8.93;;;4.60;;
8532;SDS011;4304;53.876;10.662;2022-11-20T08:07:39;7.63;;;4.43;;
8532;SDS011;4304;53.876;10.662;2022-11-20T08:10:06;6.77;;;4.30;;
8532;SDS011;4304;53.876;10.662;2022-11-20T08:12:33;6.90;;;4.03;;
8532;SDS011;4304;53.876;10.662;2022-11-20T08:14:58;5.83;;;3.83;;
8532;SDS011;4304;53.876;10.662;2022-11-20T08:17:28;5.57;;;3.80;;
8532;SDS011;4304;53.876;10.662;2022-11-20T08:19:53;8.03;;;4.03;;
8532;SDS011;4304;53.876;10.662;2022-11-20T08:22:18;6.27;;;4.03;;
8532;SDS011;4304;53.876;10.662;2022-11-20T08:24:45;5.33;;;3.77;;
8532;SDS011;4304;53.876;10.662;2022-11-20T08:27:16;4.70;;;3.40;;
8532;SDS011;4304;53.876;10.662;2022-11-20T08:29:46;5.50;;;3.90;;
8532;SDS011;4304;53.876;10.662;2022-11-20T08:32:12;5.60;;;3.80;;
8532;SDS011;4304;53.876;10.662;2022-11-20T08:34:37;5.47;;;3.43;;
8532;SDS011;4304;53.876;10.662;2022-11-20T08:37:03;5.83;;;3.27;;
8532;SDS011;4304;53.876;10.662;2022-11-20T08:39:29;6.20;;;3.77;;
8532;SDS011;4304;53.876;10.662;2022-11-20T08:41:54;4.97;;;3.60;;
8532;SDS011;4304;53.876;10.662;2022-11-20T08:44:20;5.53;;;3.30;;
8532;SDS011;4304;53.876;10.662;2022-11-20T08:49:30;5.63;;;3.57;;
8532;SDS011;4304;53.876;10.662;2022-11-20T08:51:56;8.97;;;4.53;;
8532;SDS011;4304;53.876;10.662;2022-11-20T08:54:21;5.30;;;3.50;;
8532;SDS011;4304;53.876;10.662;2022-11-20T08:56:47;4.33;;;3.27;;
8532;SDS011;4304;53.876;10.662;2022-11-20T08:59:12;3.50;;;2.77;;
8532;SDS011;4304;53.876;10.662;2022-11-20T09:01:38;4.00;;;3.07;;
8532;SDS011;4304;53.876;10.662;2022-11-20T09:04:03;5.13;;;3.73;;
8532;SDS011;4304;53.876;10.662;2022-11-20T09:09:21;5.50;;;3.50;;
8532;SDS011;4304;53.876;10.662;2022-11-20T09:11:47;5.27;;;3.20;;
8532;SDS011;4304;53.876;10.662;2022-11-20T09:14:29;5.70;;;3.67;;
8532;SDS011;4304;53.876;10.662;2022-11-20T09:16:54;6.00;;;3.20;;
8532;SDS011;4304;53.876;10.662;2022-11-20T09:19:20;5.10;;;3.43;;
8532;SDS011;4304;53.876;10.662;2022-11-20T09:21:55;4.13;;;2.83;;
8532;SDS011;4304;53.876;10.662;2022-11-20T09:24:20;6.20;;;3.47;;
8532;SDS011;4304;53.876;10.662;2022-11-20T09:26:48;5.80;;;4.03;;
8532;SDS011;4304;53.876;10.662;2022-11-20T09:29:13;5.10;;;3.30;;
8532;SDS011;4304;53.876;10.662;2022-11-20T09:31:39;4.70;;;3.27;;
8532;SDS011;4304;53.876;10.662;2022-11-20T09:34:04;5.00;;;3.37;;
8532;SDS011;4304;53.876;10.662;2022-11-20T09:36:40;5.20;;;3.27;;
8532;SDS011;4304;53.876;10.662;2022-11-20T09:39:05;5.67;;;3.37;;
8532;SDS011;4304;53.876;10.662;2022-11-20T09:55:25;4.73;;;3.30;;
8532;SDS011;4304;53.876;10.662;2022-11-20T09:57:54;8.23;;;3.30;;
8532;SDS011;4304;53.876;10.662;2022-11-20T10:00:20;4.17;;;3.07;;
8532;SDS011;4304;53.876;10.662;2022-11-20T10:02:47;7.27;;;3.63;;
8532;SDS011;4304;53.876;10.662;2022-11-20T10:05:43;5.50;;;3.60;;
8532;SDS011;4304;53.876;10.662;2022-11-20T10:08:28;5.47;;;3.13;;
8532;SDS011;4304;53.876;10.662;2022-11-20T10:13:58;5.63;;;3.37;;
8532;SDS011;4304;53.876;10.662;2022-11-20T10:19:26;5.37;;;3.40;;
8532;SDS011;4304;53.876;10.662;2022-11-20T10:28:24;5.00;;;3.37;;
8532;SDS011;4304;53.876;10.662;2022-11-20T10:31:09;3.93;;;2.90;;
8532;SDS011;4304;53.876;10.662;2022-11-20T10:33:40;3.93;;;2.67;;
8532;SDS011;4304;53.876;10.662;2022-11-20T10:38:44;4.27;;;3.17;;
8532;SDS011;4304;53.876;10.662;2022-11-20T10:41:20;4.00;;;2.93;;
8532;SDS011;4304;53.876;10.662;2022-11-20T10:43:49;5.60;;;3.23;;
8532;SDS011;4304;53.876;10.662;2022-11-20T10:46:20;4.67;;;2.87;;
8532;SDS011;4304;53.876;10.662;2022-11-20T10:48:46;4.60;;;3.20;;
8532;SDS011;4304;53.876;10.662;2022-11-20T11:00:13;6.30;;;3.00;;
8532;SDS011;4304;53.876;10.662;2022-11-20T11:02:49;3.90;;;2.70;;
8532;SDS011;4304;53.876;10.662;2022-11-20T11:05:24;3.93;;;2.60;;
8532;SDS011;4304;53.876;10.662;2022-11-20T11:07:57;6.90;;;2.47;;
8532;SDS011;4304;53.876;10.662;2022-11-20T11:10:35;3.53;;;2.20;;
8532;SDS011;4304;53.876;10.662;2022-11-20T11:13:22;4.20;;;2.80;;
8532;SDS011;4304;53.876;10.662;2022-11-20T11:15:49;3.37;;;2.60;;
8532;SDS011;4304;53.876;10.662;2022-11-20T11:18:27;4.20;;;2.90;;
8532;SDS011;4304;53.876;10.662;2022-11-20T11:20:58;3.03;;;2.20;;
8532;SDS011;4304;53.876;10.662;2022-11-20T11:23:35;3.60;;;2.30;;
8532;SDS011;4304;53.876;10.662;2022-11-20T11:26:04;3.80;;;2.10;;
8532;SDS011;4304;53.876;10.662;2022-11-20T11:28:31;2.60;;;2.10;;
8532;SDS011;4304;53.876;10.662;2022-11-20T11:30:57;3.07;;;2.10;;
8532;SDS011;4304;53.876;10.662;2022-11-20T11:33:27;3.77;;;2.73;;
8532;SDS011;4304;53.876;10.662;2022-11-20T11:35:55;3.77;;;2.33;;
8532;SDS011;4304;53.876;10.662;2022-11-20T11:38:29;5.90;;;2.47;;
8532;SDS011;4304;53.876;10.662;2022-11-20T11:40:59;3.53;;;2.43;;
8532;SDS011;4304;53.876;10.662;2022-11-20T11:43:25;2.80;;;2.20;;
8532;SDS011;4304;53.876;10.662;2022-11-20T11:45:54;5.00;;;2.27;;
8532;SDS011;4304;53.876;10.662;2022-11-20T11:48:20;5.50;;;2.40;;
8532;SDS011;4304;53.876;10.662;2022-11-20T11:50:49;2.17;;;1.77;;
8532;SDS011;4304;53.876;10.662;2022-11-20T11:53:16;3.10;;;2.20;;
8532;SDS011;4304;53.876;10.662;2022-11-20T11:58:28;9.93;;;2.33;;
8532;SDS011;4304;53.876;10.662;2022-11-20T12:01:55;4.77;;;1.80;;
8532;SDS011;4304;53.876;10.662;2022-11-20T12:10:13;3.07;;;2.27;;
8532;SDS011;4304;53.876;10.662;2022-11-20T12:12:43;3.43;;;2.00;;
8532;SDS011;4304;53.876;10.662;2022-11-20T12:15:13;4.77;;;2.40;;
8532;SDS011;4304;53.876;10.662;2022-11-20T12:17:47;7.60;;;2.83;;
8532;SDS011;4304;53.876;10.662;2022-11-20T12:20:35;15.10;;;2.70;;
8532;SDS011;4304;53.876;10.662;2022-11-20T12:23:09;2.37;;;1.70;;
8532;SDS011;4304;53.876;10.662;2022-11-20T12:26:00;3.60;;;2.23;;
8532;SDS011;4304;53.876;10.662;2022-11-20T12:45:17;2.57;;;1.50;;
8532;SDS011;4304;53.876;10.662;2022-11-20T13:01:40;2.27;;;1.77;;
8532;SDS011;4304;53.876;10.662;2022-11-20T13:06:40;3.47;;;1.90;;
8532;SDS011;4304;53.876;10.662;2022-11-20T13:09:06;2.20;;;1.80;;
8532;SDS011;4304;53.876;10.662;2022-11-20T13:19:47;3.50;;;2.17;;
8532;SDS011;4304;53.876;10.662;2022-11-20T13:27:48;2.80;;;2.00;;
8532;SDS011;4304;53.876;10.662;2022-11-20T13:30:15;2.50;;;1.90;;
8532;SDS011;4304;53.876;10.662;2022-11-20T13:32:53;2.67;;;1.87;;
8532;SDS011;4304;53.876;10.662;2022-11-20T13:36:03;4.17;;;2.37;;
8532;SDS011;4304;53.876;10.662;2022-11-20T13:38:19;3.87;;;2.50;;
8532;SDS011;4304;53.876;10.662;2022-11-20T13:41:00;3.43;;;1.70;;
8532;SDS011;4304;53.876;10.662;2022-11-20T13:45:57;4.07;;;1.80;;
8532;SDS011;4304;53.876;10.662;2022-11-20T13:48:26;1.87;;;1.50;;
8532;SDS011;4304;53.876;10.662;2022-11-20T14:01:43;3.37;;;2.20;;
8532;SDS011;4304;53.876;10.662;2022-11-20T14:04:13;3.07;;;2.10;;
8532;SDS011;4304;53.876;10.662;2022-11-20T14:06:43;3.73;;;2.33;;
8532;SDS011;4304;53.876;10.662;2022-11-20T14:09:12;3.97;;;2.50;;
8532;SDS011;4304;53.876;10.662;2022-11-20T14:11:49;3.53;;;2.50;;
8532;SDS011;4304;53.876;10.662;2022-11-20T14:14:21;3.10;;;1.97;;
8532;SDS011;4304;53.876;10.662;2022-11-20T14:16:48;3.47;;;2.20;;
8532;SDS011;4304;53.876;10.662;2022-11-20T14:21:49;3.97;;;2.27;;
8532;SDS011;4304;53.876;10.662;2022-11-20T14:24:21;4.77;;;2.50;;
8532;SDS011;4304;53.876;10.662;2022-11-20T14:26:48;4.13;;;2.40;;
8532;SDS011;4304;53.876;10.662;2022-11-20T14:29:19;4.37;;;2.63;;
8532;SDS011;4304;53.876;10.662;2022-11-20T14:31:47;4.60;;;3.20;;
8532;SDS011;4304;53.876;10.662;2022-11-20T14:34:16;5.17;;;2.83;;
8532;SDS011;4304;53.876;10.662;2022-11-20T14:36:45;4.33;;;2.97;;
8532;SDS011;4304;53.876;10.662;2022-11-20T14:39:11;6.33;;;3.67;;
8532;SDS011;4304;53.876;10.662;2022-11-20T14:41:37;10.07;;;3.80;;
8532;SDS011;4304;53.876;10.662;2022-11-20T14:44:04;3.53;;;2.53;;
8532;SDS011;4304;53.876;10.662;2022-11-20T14:46:29;4.10;;;2.90;;
8532;SDS011;4304;53.876;10.662;2022-11-20T14:48:56;4.27;;;2.83;;
8532;SDS011;4304;53.876;10.662;2022-11-20T14:51:33;5.73;;;3.23;;
8532;SDS011;4304;53.876;10.662;2022-11-20T14:54:11;6.17;;;3.10;;
8532;SDS011;4304;53.876;10.662;2022-11-20T14:56:37;4.97;;;3.10;;
8532;SDS011;4304;53.876;10.662;2022-11-20T15:04:49;5.27;;;2.77;;
8532;SDS011;4304;53.876;10.662;2022-11-20T15:07:29;4.83;;;2.97;;
8532;SDS011;4304;53.876;10.662;2022-11-20T15:10:39;5.73;;;3.50;;
8532;SDS011;4304;53.876;10.662;2022-11-20T15:12:52;4.53;;;3.00;;
8532;SDS011;4304;53.876;10.662;2022-11-20T15:16:08;6.27;;;2.60;;
8532;SDS011;4304;53.876;10.662;2022-11-20T15:18:28;5.77;;;3.23;;
8532;SDS011;4304;53.876;10.662;2022-11-20T15:20:56;6.33;;;3.40;;
8532;SDS011;4304;53.876;10.662;2022-11-20T15:23:23;5.30;;;3.50;;
8532;SDS011;4304;53.876;10.662;2022-11-20T15:25:48;7.47;;;4.10;;
8532;SDS011;4304;53.876;10.662;2022-11-20T15:30:46;6.27;;;4.33;;
8532;SDS011;4304;53.876;10.662;2022-11-20T15:33:12;8.27;;;3.90;;
8532;SDS011;4304;53.876;10.662;2022-11-20T15:35:37;5.63;;;3.57;;
8532;SDS011;4304;53.876;10.662;2022-11-20T15:38:03;7.17;;;4.10;;
8532;SDS011;4304;53.876;10.662;2022-11-20T15:40:28;7.33;;;4.40;;
8532;SDS011;4304;53.876;10.662;2022-11-20T15:42:53;5.90;;;3.70;;
8532;SDS011;4304;53.876;10.662;2022-11-20T15:45:30;4.73;;;3.23;;
8532;SDS011;4304;53.876;10.662;2022-11-20T15:48:00;5.83;;;3.67;;
8532;SDS011;4304;53.876;10.662;2022-11-20T15:50:27;6.10;;;3.93;;
8532;SDS011;4304;53.876;10.662;2022-11-20T15:52:59;5.50;;;3.33;;
8532;SDS011;4304;53.876;10.662;2022-11-20T15:55:24;5.60;;;3.67;;
8532;SDS011;4304;53.876;10.662;2022-11-20T15:57:49;7.93;;;4.67;;
8532;SDS011;4304;53.876;10.662;2022-11-20T16:00:15;7.57;;;4.47;;
8532;SDS011;4304;53.876;10.662;2022-11-20T16:02:40;7.47;;;3.97;;
8532;SDS011;4304;53.876;10.662;2022-11-20T16:05:09;9.60;;;4.50;;
8532;SDS011;4304;53.876;10.662;2022-11-20T16:07:36;8.53;;;4.47;;
8532;SDS011;4304;53.876;10.662;2022-11-20T16:10:01;7.40;;;4.40;;
8532;SDS011;4304;53.876;10.662;2022-11-20T16:12:27;7.80;;;4.33;;
8532;SDS011;4304;53.876;10.662;2022-11-20T16:14:52;9.37;;;5.20;;
8532;SDS011;4304;53.876;10.662;2022-11-20T16:17:17;9.97;;;5.57;;
8532;SDS011;4304;53.876;10.662;2022-11-20T16:19:42;13.20;;;5.93;;
8532;SDS011;4304;53.876;10.662;2022-11-20T16:22:10;5.60;;;3.90;;
8532;SDS011;4304;53.876;10.662;2022-11-20T16:24:36;7.67;;;3.93;;
8532;SDS011;4304;53.876;10.662;2022-11-20T16:27:01;7.23;;;4.13;;
8532;SDS011;4304;53.876;10.662;2022-11-20T16:29:27;5.93;;;3.67;;
8532;SDS011;4304;53.876;10.662;2022-11-20T16:31:52;5.73;;;3.97;;
8532;SDS011;4304;53.876;10.662;2022-11-20T16:34:17;7.23;;;3.97;;
8532;SDS011;4304;53.876;10.662;2022-11-20T16:36:43;6.53;;;3.97;;
8532;SDS011;4304;53.876;10.662;2022-11-20T16:39:08;5.90;;;3.73;;
8532;SDS011;4304;53.876;10.662;2022-11-20T16:41:34;6.03;;;3.03;;
8532;SDS011;4304;53.876;10.662;2022-11-20T16:44:09;3.53;;;2.83;;
8532;SDS011;4304;53.876;10.662;2022-11-20T16:46:35;3.90;;;3.17;;
8532;SDS011;4304;53.876;10.662;2022-11-20T16:49:03;4.50;;;2.77;;
8532;SDS011;4304;53.876;10.662;2022-11-20T16:51:30;10.07;;;2.90;;
8532;SDS011;4304;53.876;10.662;2022-11-20T16:53:59;5.93;;;3.00;;
8532;SDS011;4304;53.876;10.662;2022-11-20T16:56:26;2.80;;;2.27;;
8532;SDS011;4304;53.876;10.662;2022-11-20T16:58:52;3.40;;;2.57;;
8532;SDS011;4304;53.876;10.662;2022-11-20T17:01:31;3.57;;;2.80;;
8532;SDS011;4304;53.876;10.662;2022-11-20T17:03:57;5.90;;;3.20;;
8532;SDS011;4304;53.876;10.662;2022-11-20T17:06:25;4.27;;;2.73;;
8532;SDS011;4304;53.876;10.662;2022-11-20T17:08:55;3.77;;;2.90;;
8532;SDS011;4304;53.876;10.662;2022-11-20T17:11:21;8.53;;;4.47;;
8532;SDS011;4304;53.876;10.662;2022-11-20T17:13:47;8.70;;;3.17;;
8532;SDS011;4304;53.876;10.662;2022-11-20T17:16:14;6.83;;;3.53;;
8532;SDS011;4304;53.876;10.662;2022-11-20T17:18:41;4.17;;;3.00;;